Signet Thunder — WDH4914 — position and weather

sailwx.info

Track history (hours):
 
Tides and Currents Weather Stations Pressure Air Temp Water Temp Dewpoint Dewpoint Depression Visibility Wind Speed Wind Dir Waves Ship Positions

Signet Thunder

Owner: Signet Maritime Corporation, Pascagoula, MS. More information available from US FCC via Universal Licensing System and Coast Guard Vessel Documentation Center.

Last reported at 2017-Sep-24 14:02 UTC. Time now 2017-Oct-19 20:01 UTC.
Position N 25°32' W 079°47'.
Warning: this ship's position is 25 days out of date.

Length 38 m; draft 5 m.

Type: Tug. MMSI: 369579000.

Date/timePositionNaut miles runAvg speedWind from/ knotsBaromVisibWave heightAir tempDewpointWater temp
2017-Sep-24 14:02N 25°32' W 079°47'3 8.5
2017-Sep-24 13:43N 25°34' W 079°48'2 8.5
2017-Sep-24 13:30N 25°36' W 079°50'4 8.6
2017-Sep-24 13:00N 25°39' W 079°53'4 9.2
2017-Sep-24 12:30N 25°43' W 079°55'5 9.5
2017-Sep-24 12:01N 25°47' W 079°58'510.1
2017-Sep-24 11:30N 25°52' W 079°58'510.4
2017-Sep-24 11:01N 25°57' W 079°58'5 9.5
2017-Sep-24 10:31N 26°02' W 079°58'4 8.8
2017-Sep-24 10:00N 26°06' W 079°58'4 8.5
2017-Sep-24 09:29N 26°11' W 079°58'4 8.2
2017-Sep-24 09:00N 26°15' W 079°58'4 8.1
2017-Sep-24 08:30N 26°19' W 079°58'6 8.2
2017-Sep-24 07:42N 26°25' W 079°58'2 8.3
2017-Sep-24 07:28N 26°27' W 079°58'24 8.4
2017-Sep-24 04:35N 26°52' W 079°56'1 8.3
2017-Sep-24 04:30N 26°52' W 079°56'4 8.3
2017-Sep-24 04:00N 26°56' W 079°57'4 8.2
2017-Sep-24 03:30N 27°01' W 079°57'  
Track history (hours):
 
Tides and Currents Weather Stations Pressure Air Temp Water Temp Dewpoint Dewpoint Depression Visibility Wind Speed Wind Dir Waves Ship Positions

Signet Thunder

Owner: Signet Maritime Corporation, Pascagoula, MS. More information available from US FCC via Universal Licensing System and Coast Guard Vessel Documentation Center.

Last reported at 2017-Sep-24 14:02 UTC. Time now 2017-Oct-19 20:01 UTC.
Position N 25°32' W 079°47'.
Warning: this ship's position is 25 days out of date.

Length 38 m; draft 5 m.

Type: Tug. MMSI: 369579000.

Date/timePositionNaut miles runAvg speedWind from/ knotsBaromVisibWave heightAir tempDewpointWater temp
2017-Sep-24 14:02N 25°32' W 079°47'3 8.5
2017-Sep-24 13:43N 25°34' W 079°48'2 8.5
2017-Sep-24 13:30N 25°36' W 079°50'4 8.6
2017-Sep-24 13:00N 25°39' W 079°53'4 9.2
2017-Sep-24 12:30N 25°43' W 079°55'5 9.5
2017-Sep-24 12:01N 25°47' W 079°58'510.1
2017-Sep-24 11:30N 25°52' W 079°58'510.4
2017-Sep-24 11:01N 25°57' W 079°58'5 9.5
2017-Sep-24 10:31N 26°02' W 079°58'4 8.8
2017-Sep-24 10:00N 26°06' W 079°58'4 8.5
2017-Sep-24 09:29N 26°11' W 079°58'4 8.2
2017-Sep-24 09:00N 26°15' W 079°58'4 8.1
2017-Sep-24 08:30N 26°19' W 079°58'6 8.2
2017-Sep-24 07:42N 26°25' W 079°58'2 8.3
2017-Sep-24 07:28N 26°27' W 079°58'24 8.4
2017-Sep-24 04:35N 26°52' W 079°56'1 8.3
2017-Sep-24 04:30N 26°52' W 079°56'4 8.3
2017-Sep-24 04:00N 26°56' W 079°57'4 8.2
2017-Sep-24 03:30N 27°01' W 079°57'  

Dump ship's entire track history